Rushville, IL

2:26 PM CDT on July 02, 2015 (GMT -0500)
APRSWXNET | | Change Station
CLOSE
Current Station
Personal Weather Station
Location: Bader, IL
Elevation: 649 ft
Nearby Weather Stations

Elev 649 ft 40.14 °N, 90.42 °W | Updated 23 minutes ago

Partly Cloudy
Partly Cloudy
67 °F
Feels Like 67 °F
N
8
Wind Variable Wind from ENE
Gusts 12.0 mph

Today
High -- | Low -- °F
--% Chance of Precip.
Yesterday
High -- | Low -- °F
Precip. -- in
5:37 AM 8:35 PM
Full, 99% visible
Pressure 29.98 in
Visibility 10.0 miles
Clouds Scattered Clouds 2400 ft
Dew Point 60 °F
Humidity 77%
Rainfall in
Snow Depth Not available.
UV 9 out of 12
Pollen .60 out of 12
Air Quality Not available.
Flu Activity Not available.
METAR KMQB 021915Z AUTO 06007KT 10SM SCT024 20/15 A2998 RMK AO2 T02020153

More Conditions Fewer Conditions

Pressure 29.98 in
Visibility 10.0 miles
Clouds Scattered Clouds 2400 ft
Dew Point 60 °F
Humidity 77%
Rainfall in
Snow Depth Not available.
UV 9 out of 12
Pollen .60 out of 12
Air Quality Not available.
Flu Activity Not available.
METAR KMQB 021915Z AUTO 06007KT 10SM SCT024 20/15 A2998 RMK AO2 T02020153

More Conditions Fewer Conditions

10-Day Weather Forecast

×

Almanac

Astronomy

Jul. 02, 2015 Rise Set
Actual Time
Civil Twilight
Nautical Twilight
Astronomical Twilight
Moon
Length of Visible Light
Length of Day
Tomorrow will be .
, % of the Moon is Illuminated

Today's Extremes

State Highs State Lows

Community

WunderPhotos

Upload Photos

1,834,519 photos uploaded!

WunderBlogs® & News

Nearby

Air Quality

  Air Quality AQ Index Pollutant
Not available.

Snow Depth

Station Depth Elevation

Earthquake Activity

City Distance Mag. Time & Date
Minimum magnitude displayed is 2.5.

Coastal Water Temperatures

Place Temperature

Stations

Nearby Weather Stations

Station Location Temp. Windchill Dew Point Humidity Wind Precip. Elev Updated Type